Time;durP1;ratioP1;P1;durP2;ratioP2;P2;SDS_P1;SDS_P2;PMS_P1;PMS_P2;Temp;Humidity;BMP_temperature;BMP_pressure;BME280_temperature;BME280_humidity;BME280_pressure;Samples;Min_cycle;Max_cycle;Signal;HPM_P1;HPM_P2
2023/08/13 00:00:24;;;;;;;16.27;2.97;;;15.00;99.90;;;;;;5045932;28;20041;-64
2023/08/13 00:02:51;;;;;;;10.48;2.50;;;14.90;99.90;;;;;;5028447;28;20078;-63
2023/08/13 00:05:17;;;;;;;12.43;2.90;;;15.00;99.90;;;;;;5045914;28;20033;-65
2023/08/13 00:07:43;;;;;;;13.13;3.00;;;15.00;99.90;;;;;;5048038;28;20060;-63
2023/08/13 00:10:09;;;;;;;14.45;2.70;;;15.00;99.90;;;;;;5045601;28;20029;-64
2023/08/13 00:12:34;;;;;;;12.20;2.28;;;14.90;99.90;;;;;;5046333;28;20449;-64
2023/08/13 00:15:01;;;;;;;12.32;3.00;;;15.00;99.90;;;;;;5029343;28;20044;-64
2023/08/13 00:17:26;;;;;;;16.70;2.55;;;15.00;99.90;;;;;;5045636;28;20511;-64
2023/08/13 00:19:52;;;;;;;13.02;2.50;;;15.00;99.90;;;;;;5045505;28;20044;-64
2023/08/13 00:22:18;;;;;;;12.95;2.22;;;15.00;99.90;;;;;;5045586;28;20123;-64
2023/08/13 00:24:43;;;;;;;15.02;2.15;;;15.00;99.90;;;;;;5045304;28;20621;-63
2023/08/13 00:27:11;;;;;;;17.42;2.38;;;15.00;99.90;;;;;;5045643;28;20067;-64
2023/08/13 00:29:39;;;;;;;12.65;2.30;;;15.00;99.90;;;;;;5045136;28;20055;-64
2023/08/13 00:32:05;;;;;;;12.95;2.30;;;15.00;99.90;;;;;;5029274;28;20083;-63
2023/08/13 00:34:30;;;;;;;13.95;2.38;;;15.00;99.90;;;;;;5045681;28;20448;-64
2023/08/13 00:37:16;;;;;;;11.93;2.00;;;15.00;99.90;;;;;;5045375;28;20114;-64
2023/08/13 00:39:43;;;;;;;12.85;2.42;;;15.00;99.90;;;;;;5044853;28;20045;-64
2023/08/13 00:42:09;;;;;;;16.75;2.50;;;14.90;99.90;;;;;;5012256;28;20039;-66
2023/08/13 00:44:35;;;;;;;14.05;2.70;;;14.90;99.90;;;;;;5045298;28;20044;-64
2023/08/13 00:47:01;;;;;;;12.80;2.22;;;15.00;99.90;;;;;;5028402;28;20403;-64
2023/08/13 00:49:27;;;;;;;11.00;2.00;;;15.00;99.90;;;;;;5045351;28;20051;-63
2023/08/13 00:51:52;;;;;;;11.95;2.08;;;15.00;99.90;;;;;;5045274;28;20623;-64
2023/08/13 00:54:18;;;;;;;13.23;2.10;;;15.00;99.90;;;;;;5044766;28;20041;-65
2023/08/13 00:56:46;;;;;;;8.95;1.48;;;14.90;99.90;;;;;;5027890;28;20098;-64
2023/08/13 00:59:12;;;;;;;12.38;2.05;;;15.00;99.90;;;;;;5044268;28;20443;-63
2023/08/13 01:01:38;;;;;;;15.02;2.30;;;15.00;99.90;;;;;;5026760;28;20047;-63
2023/08/13 01:04:04;;;;;;;13.77;2.15;;;14.90;99.90;;;;;;5027589;28;20037;-63
2023/08/13 01:06:46;;;;;;;12.07;1.65;;;15.00;99.90;;;;;;5044642;28;20041;-65
2023/08/13 01:09:33;;;;;;;11.57;2.03;;;14.90;99.90;;;;;;5044716;28;20537;-64
2023/08/13 01:12:17;;;;;;;13.93;2.30;;;14.90;99.90;;;;;;5043853;28;20045;-63
2023/08/13 01:15:02;;;;;;;11.75;2.05;;;14.90;99.90;;;;;;5028104;28;20144;-63
2023/08/13 01:17:29;;;;;;;9.55;2.17;;;14.90;99.90;;;;;;5044267;28;20047;-64
2023/08/13 01:19:55;;;;;;;12.63;1.90;;;14.90;99.90;;;;;;5028627;28;20040;-64
2023/08/13 01:22:27;;;;;;;10.23;1.75;;;14.90;99.90;;;;;;5028245;28;20098;-65
2023/08/13 01:24:54;;;;;;;10.75;2.30;;;14.90;99.90;;;;;;5027425;28;20041;-64
2023/08/13 01:27:50;;;;;;;11.80;2.10;;;14.90;99.90;;;;;;5045603;28;20128;-64
2023/08/13 01:30:39;;;;;;;7.35;1.98;;;14.90;99.90;;;;;;5044116;28;20033;-64
2023/08/13 01:33:07;;;;;;;12.70;2.17;;;14.90;99.90;;;;;;5044749;28;20045;-64
2023/08/13 01:35:34;;;;;;;9.52;2.10;;;14.80;99.90;;;;;;5044253;28;20137;-64
2023/08/13 01:38:01;;;;;;;15.75;2.38;;;14.80;99.90;;;;;;5013627;28;20057;-64
2023/08/13 01:40:28;;;;;;;12.27;2.25;;;14.80;99.90;;;;;;5045717;28;20127;-65
2023/08/13 01:42:53;;;;;;;14.38;2.50;;;14.80;99.90;;;;;;5027499;28;20045;-64
2023/08/13 01:45:19;;;;;;;15.48;2.42;;;14.80;99.90;;;;;;5045235;28;20391;-65
2023/08/13 01:47:46;;;;;;;16.02;3.30;;;14.80;99.90;;;;;;5027014;28;20569;-64
2023/08/13 01:50:13;;;;;;;11.30;2.35;;;14.80;99.90;;;;;;5044566;28;20123;-65
2023/08/13 01:52:39;;;;;;;13.35;2.28;;;14.90;99.90;;;;;;5043885;28;20072;-64
2023/08/13 01:55:05;;;;;;;16.48;2.78;;;14.80;99.90;;;;;;5044054;28;20134;-64
2023/08/13 01:57:31;;;;;;;15.05;2.40;;;14.90;99.90;;;;;;5027350;28;20061;-64
2023/08/13 01:59:57;;;;;;;15.73;3.10;;;14.90;99.90;;;;;;5044310;28;20128;-64
2023/08/13 02:02:23;;;;;;;15.45;2.88;;;14.80;99.90;;;;;;5044612;28;20044;-64
2023/08/13 02:04:49;;;;;;;15.32;3.03;;;14.80;99.90;;;;;;5044157;28;20037;-64
2023/08/13 02:07:15;;;;;;;12.73;2.53;;;14.90;99.90;;;;;;5044123;28;20037;-62
2023/08/13 02:09:40;;;;;;;17.52;2.70;;;14.80;99.90;;;;;;5043286;28;20078;-64
2023/08/13 02:12:06;;;;;;;18.55;2.55;;;14.90;99.90;;;;;;5027863;28;20084;-64
2023/08/13 02:14:32;;;;;;;13.02;2.60;;;14.80;99.90;;;;;;5045461;28;20399;-67
2023/08/13 02:16:59;;;;;;;14.50;2.85;;;14.90;99.90;;;;;;5044273;28;20055;-65
2023/08/13 02:19:25;;;;;;;14.20;2.72;;;14.90;99.90;;;;;;5027613;28;20033;-64
2023/08/13 02:21:51;;;;;;;16.67;2.80;;;15.00;99.90;;;;;;5044283;28;20111;-63
2023/08/13 02:24:19;;;;;;;16.08;2.65;;;15.00;99.90;;;;;;5059746;28;20438;-64
2023/08/13 02:26:47;;;;;;;12.57;3.00;;;14.90;99.90;;;;;;5031228;28;20124;-65
2023/08/13 02:29:12;;;;;;;15.25;3.00;;;14.90;99.90;;;;;;5014392;28;20091;-62
2023/08/13 02:31:38;;;;;;;14.32;2.75;;;15.00;99.90;;;;;;5031703;28;20044;-63
2023/08/13 02:34:04;;;;;;;15.60;2.75;;;15.00;99.90;;;;;;5047876;28;20663;-64
2023/08/13 02:36:29;;;;;;;12.65;2.63;;;15.00;99.90;;;;;;5047523;28;20091;-64
2023/08/13 02:38:55;;;;;;;17.83;3.00;;;15.00;99.90;;;;;;5030401;28;20072;-64
2023/08/13 02:41:21;;;;;;;14.73;2.65;;;15.10;99.90;;;;;;5030460;28;20041;-63
2023/08/13 02:43:52;;;;;;;15.00;2.92;;;15.00;99.90;;;;;;5030914;28;20119;-63
2023/08/13 02:46:21;;;;;;;16.63;3.10;;;15.00;99.90;;;;;;5047324;28;20052;-65
2023/08/13 02:48:47;;;;;;;16.95;2.85;;;14.90;99.90;;;;;;5046869;28;20779;-63
2023/08/13 02:51:14;;;;;;;16.58;2.97;;;14.90;99.90;;;;;;5030984;28;20044;-64
2023/08/13 02:53:41;;;;;;;11.63;2.75;;;14.90;99.90;;;;;;5048646;28;20045;-64
2023/08/13 02:56:45;;;;;;;15.73;3.50;;;14.90;99.90;;;;;;5047663;28;20029;-63
2023/08/13 02:59:32;;;;;;;17.77;2.45;;;14.90;99.90;;;;;;5048283;28;20045;-63
2023/08/13 03:01:58;;;;;;;17.60;3.28;;;14.80;99.90;;;;;;5047157;28;20080;-63
2023/08/13 03:04:23;;;;;;;15.88;2.90;;;14.70;99.90;;;;;;5030396;28;20083;-65
2023/08/13 03:06:49;;;;;;;16.58;2.78;;;14.70;99.90;;;;;;5047811;28;20040;-64
2023/08/13 03:09:20;;;;;;;18.75;3.13;;;14.70;99.90;;;;;;5047372;28;20029;-63
2023/08/13 03:15:10;;;;;;;20.95;3.03;;;14.60;99.90;;;;;;5047610;28;20052;-64
2023/08/13 03:17:36;;;;;;;16.23;3.35;;;14.60;99.90;;;;;;5047656;28;20826;-63
2023/08/13 03:20:01;;;;;;;18.63;3.83;;;14.50;99.90;;;;;;5048063;28;20372;-65
2023/08/13 03:22:27;;;;;;;15.35;3.47;;;14.50;99.90;;;;;;5047186;28;20068;-63
2023/08/13 03:24:53;;;;;;;15.27;3.25;;;14.50;99.90;;;;;;5047594;28;20044;-64
2023/08/13 03:27:18;;;;;;;16.80;3.80;;;14.40;99.90;;;;;;5048845;28;20163;-62
2023/08/13 03:29:44;;;;;;;19.15;3.42;;;14.40;99.90;;;;;;5047703;28;20075;-63
2023/08/13 03:32:09;;;;;;;20.00;3.45;;;14.40;99.90;;;;;;5047267;28;20395;-64
2023/08/13 03:34:35;;;;;;;20.40;3.95;;;14.30;99.90;;;;;;5047168;28;20079;-65
2023/08/13 03:37:01;;;;;;;20.52;3.58;;;14.30;99.90;;;;;;5030451;28;20033;-64
2023/08/13 03:39:26;;;;;;;16.05;3.70;;;14.30;99.90;;;;;;5029998;28;20136;-64
2023/08/13 03:41:52;;;;;;;19.60;4.00;;;14.30;99.90;;;;;;5030050;28;20048;-63
2023/08/13 03:44:18;;;;;;;18.73;3.80;;;14.20;99.90;;;;;;5029663;28;20519;-65
2023/08/13 03:46:43;;;;;;;18.83;3.53;;;14.20;99.90;;;;;;5045742;28;20391;-64
2023/08/13 03:49:09;;;;;;;22.60;4.10;;;14.30;99.90;;;;;;5046212;28;20029;-65
2023/08/13 03:51:35;;;;;;;19.23;3.83;;;14.30;99.90;;;;;;5028251;28;20045;-64
2023/08/13 03:54:00;;;;;;;18.70;3.78;;;14.30;99.90;;;;;;5030066;28;20138;-64
2023/08/13 03:56:26;;;;;;;24.10;4.53;;;14.20;99.90;;;;;;5029848;28;20044;-65
2023/08/13 03:58:52;;;;;;;19.05;4.07;;;14.10;99.90;;;;;;5045932;28;20120;-63
2023/08/13 04:01:36;;;;;;;17.02;3.75;;;14.20;99.90;;;;;;5030087;28;20395;-63
2023/08/13 04:04:02;;;;;;;17.02;3.70;;;14.20;99.90;;;;;;5046747;28;20091;-64
2023/08/13 04:06:28;;;;;;;22.55;4.70;;;14.30;99.90;;;;;;5029441;28;20033;-65
2023/08/13 04:08:53;;;;;;;18.55;4.35;;;14.20;99.90;;;;;;5046245;28;20182;-64
2023/08/13 04:11:19;;;;;;;20.42;4.18;;;14.20;99.90;;;;;;5046340;28;20116;-64
2023/08/13 04:13:45;;;;;;;15.32;3.70;;;14.30;99.90;;;;;;5045837;28;20405;-63
2023/08/13 04:16:10;;;;;;;19.95;4.30;;;14.20;99.90;;;;;;5029564;28;20091;-64
2023/08/13 04:18:36;;;;;;;20.25;3.63;;;14.20;99.90;;;;;;5046297;28;20045;-65
2023/08/13 04:21:02;;;;;;;18.92;3.97;;;14.30;99.90;;;;;;5030025;28;20100;-64
2023/08/13 04:23:28;;;;;;;21.10;4.65;;;14.20;99.90;;;;;;5028591;28;20083;-64
2023/08/13 04:25:53;;;;;;;18.85;4.47;;;14.40;99.90;;;;;;5044611;28;20442;-64
2023/08/13 04:28:19;;;;;;;17.70;3.47;;;14.40;99.90;;;;;;5012224;28;20041;-64
2023/08/13 04:30:45;;;;;;;17.20;3.70;;;14.40;99.90;;;;;;5045522;28;20036;-63
2023/08/13 04:33:10;;;;;;;20.40;4.13;;;14.30;99.90;;;;;;5012741;28;20041;-64
2023/08/13 04:35:36;;;;;;;20.95;4.38;;;14.50;99.90;;;;;;5047548;28;20499;-64
2023/08/13 04:38:02;;;;;;;19.63;4.05;;;14.50;99.90;;;;;;5045316;28;20133;-64
2023/08/13 04:40:27;;;;;;;15.95;4.70;;;14.60;99.90;;;;;;5028872;28;20137;-64
2023/08/13 04:42:53;;;;;;;17.50;4.13;;;14.50;99.90;;;;;;5028328;28;20086;-63
2023/08/13 04:45:39;;;;;;;20.15;3.97;;;14.60;99.90;;;;;;5028405;28;20430;-63
2023/08/13 04:48:05;;;;;;;14.02;3.80;;;14.70;99.90;;;;;;5044520;28;20035;-63
2023/08/13 04:50:32;;;;;;;16.85;3.65;;;14.90;99.90;;;;;;5028282;28;20036;-64
2023/08/13 04:52:58;;;;;;;16.33;3.40;;;14.80;99.90;;;;;;5045019;28;20056;-63
2023/08/13 04:55:24;;;;;;;15.68;3.80;;;14.90;99.90;;;;;;5046294;28;20490;-62
2023/08/13 04:57:49;;;;;;;18.77;3.80;;;14.90;99.90;;;;;;5044654;28;20136;-63
2023/08/13 05:00:15;;;;;;;19.40;3.75;;;15.10;99.90;;;;;;5028526;28;20029;-64
2023/08/13 05:02:41;;;;;;;17.58;4.07;;;15.00;99.90;;;;;;5046429;28;20037;-64
2023/08/13 05:05:07;;;;;;;17.02;3.33;;;15.10;99.90;;;;;;5010822;28;20044;-65
2023/08/13 05:07:33;;;;;;;17.88;3.38;;;15.30;99.90;;;;;;5028469;28;20037;-63
2023/08/13 05:09:58;;;;;;;14.80;3.22;;;15.20;99.90;;;;;;5045028;28;20033;-62
2023/08/13 05:12:24;;;;;;;16.65;3.70;;;15.30;99.90;;;;;;5044800;28;20033;-64
2023/08/13 05:14:50;;;;;;;13.98;3.72;;;15.50;99.90;;;;;;5027754;28;20033;-64
2023/08/13 05:17:23;;;;;;;17.90;3.35;;;15.50;99.90;;;;;;5044523;28;20483;-63
2023/08/13 05:19:49;;;;;;;19.00;3.33;;;15.40;99.90;;;;;;5044345;28;20037;-63
2023/08/13 05:22:15;;;;;;;14.65;3.33;;;15.50;99.90;;;;;;5043819;28;20037;-63
2023/08/13 05:24:41;;;;;;;17.52;3.47;;;15.50;99.90;;;;;;5044478;28;20454;-64
2023/08/13 05:27:06;;;;;;;15.15;3.50;;;15.70;99.90;;;;;;5027566;28;20089;-64
2023/08/13 05:29:32;;;;;;;13.40;3.38;;;15.60;99.90;;;;;;5027927;28;20049;-64
2023/08/13 05:31:58;;;;;;;18.38;3.05;;;15.90;99.90;;;;;;5044312;28;20060;-64
2023/08/13 05:34:23;;;;;;;16.35;2.88;;;16.00;99.90;;;;;;5037813;28;20048;-65
2023/08/13 05:36:49;;;;;;;14.68;3.42;;;16.00;99.90;;;;;;5012508;28;20462;-65
2023/08/13 05:39:15;;;;;;;17.02;3.25;;;16.20;99.90;;;;;;5028435;28;20045;-65
2023/08/13 05:41:40;;;;;;;13.02;3.08;;;16.30;99.90;;;;;;5029268;28;20048;-64
2023/08/13 05:44:06;;;;;;;17.05;3.08;;;16.40;99.90;;;;;;5013481;28;20397;-65
2023/08/13 05:46:33;;;;;;;15.85;3.80;;;16.50;99.90;;;;;;5013112;28;20041;-64
2023/08/13 05:48:58;;;;;;;14.75;3.28;;;16.40;99.90;;;;;;5028824;28;20090;-64
2023/08/13 05:51:24;;;;;;;13.98;3.15;;;16.40;99.90;;;;;;5011798;28;20482;-65
2023/08/13 05:53:50;;;;;;;11.65;2.60;;;16.50;99.90;;;;;;5028626;28;20045;-65
2023/08/13 05:56:15;;;;;;;17.95;3.03;;;16.50;99.90;;;;;;5011853;28;20080;-64
2023/08/13 05:58:41;;;;;;;13.50;2.80;;;16.50;99.90;;;;;;5029488;28;20048;-63
2023/08/13 06:01:07;;;;;;;18.67;3.17;;;16.50;99.90;;;;;;5016108;28;20033;-65
2023/08/13 06:03:35;;;;;;;13.88;2.40;;;16.50;99.90;;;;;;5033695;28;20367;-65
2023/08/13 06:06:01;;;;;;;17.25;3.20;;;16.60;99.90;;;;;;5015882;28;20037;-65
2023/08/13 06:08:26;;;;;;;14.35;3.10;;;16.60;99.90;;;;;;5016571;28;20086;-65
2023/08/13 06:10:52;;;;;;;16.05;3.15;;;16.60;99.90;;;;;;5034528;28;20522;-65
2023/08/13 06:13:18;;;;;;;13.38;2.83;;;16.50;99.90;;;;;;5033232;28;20033;-65
2023/08/13 06:15:43;;;;;;;15.73;2.83;;;16.50;99.90;;;;;;5032863;28;20689;-65
2023/08/13 06:18:09;;;;;;;11.30;3.03;;;16.70;99.90;;;;;;5032647;28;20302;-64
2023/08/13 06:20:35;;;;;;;19.48;3.30;;;16.60;99.90;;;;;;5016427;28;20089;-66
2023/08/13 06:23:00;;;;;;;15.93;3.10;;;16.40;99.90;;;;;;5032067;28;20067;-66
2023/08/13 06:25:26;;;;;;;13.55;3.13;;;16.40;99.90;;;;;;5031897;28;20094;-66
2023/08/13 06:27:52;;;;;;;18.88;3.38;;;16.40;99.90;;;;;;5032406;28;20458;-65
2023/08/13 06:30:17;;;;;;;12.00;3.03;;;16.30;99.90;;;;;;5032551;28;20045;-66
2023/08/13 06:32:43;;;;;;;13.98;3.25;;;16.40;99.90;;;;;;5032803;28;20044;-65
2023/08/13 06:35:10;;;;;;;13.48;3.30;;;16.40;99.90;;;;;;5032202;28;20037;-65
2023/08/13 06:37:35;;;;;;;15.98;3.45;;;16.30;99.90;;;;;;5031977;28;20048;-65
2023/08/13 06:40:01;;;;;;;13.48;3.25;;;16.40;99.90;;;;;;5033074;28;20053;-65
2023/08/13 06:42:27;;;;;;;11.90;3.22;;;16.30;99.90;;;;;;5032127;28;20488;-63
2023/08/13 06:44:52;;;;;;;16.98;3.38;;;16.40;99.90;;;;;;5016863;28;21481;-65
2023/08/13 06:47:18;;;;;;;13.63;2.83;;;16.90;99.90;;;;;;5015892;28;20067;-65
2023/08/13 06:49:44;;;;;;;13.30;2.88;;;17.50;99.90;;;;;;5016407;28;20175;-65
2023/08/13 06:52:10;;;;;;;15.43;2.72;;;17.90;99.90;;;;;;5000353;28;20663;-64
2023/08/13 06:54:37;;;;;;;11.95;2.30;;;18.40;99.90;;;;;;5033471;28;20124;-65
2023/08/13 06:57:03;;;;;;;10.07;2.40;;;18.70;99.90;;;;;;5007652;28;20098;-65
2023/08/13 06:59:29;;;;;;;11.98;2.03;;;19.10;99.90;;;;;;5032359;28;20547;-65
2023/08/13 07:01:55;;;;;;;9.27;2.25;;;19.30;99.90;;;;;;5010567;28;20037;-65
2023/08/13 07:04:20;;;;;;;11.10;2.28;;;19.60;99.90;;;;;;5015531;28;20033;-65
2023/08/13 07:06:46;;;;;;;9.00;2.63;;;19.50;99.90;;;;;;5016209;28;20212;-65
2023/08/13 07:09:12;;;;;;;12.93;2.70;;;19.70;99.90;;;;;;5033846;28;20045;-64
2023/08/13 07:11:38;;;;;;;10.63;2.20;;;20.00;99.90;;;;;;5033837;28;20407;-66
2023/08/13 07:14:04;;;;;;;12.95;2.53;;;19.80;99.90;;;;;;5034216;28;20301;-64
2023/08/13 07:16:30;;;;;;;10.68;2.53;;;19.50;99.90;;;;;;5032451;28;20041;-64
2023/08/13 07:18:56;;;;;;;11.20;2.17;;;19.20;99.90;;;;;;5031854;28;20376;-65
2023/08/13 07:21:22;;;;;;;9.15;1.90;;;19.00;99.90;;;;;;4999651;28;20063;-65
2023/08/13 07:23:48;;;;;;;15.07;2.42;;;19.30;99.90;;;;;;4998933;28;20477;-64
2023/08/13 07:26:14;;;;;;;10.75;2.00;;;19.50;99.90;;;;;;5001451;28;20033;-64
2023/08/13 07:28:40;;;;;;;8.57;1.88;;;19.80;99.90;;;;;;5033868;28;20465;-65
2023/08/13 07:31:06;;;;;;;13.32;2.25;;;20.10;99.90;;;;;;5033988;28;20044;-65
2023/08/13 07:33:33;;;;;;;12.85;2.28;;;20.30;99.90;;;;;;5031068;28;20033;-66
2023/08/13 07:36:03;;;;;;;9.75;2.00;;;20.30;99.90;;;;;;5013809;28;20514;-65
2023/08/13 07:38:29;;;;;;;8.20;1.90;;;20.60;99.90;;;;;;5030333;28;20295;-65
2023/08/13 07:40:57;;;;;;;8.65;1.90;;;20.50;99.90;;;;;;5030805;28;20079;-64
2023/08/13 07:43:24;;;;;;;9.52;1.50;;;20.60;99.90;;;;;;5014073;28;20102;-66
2023/08/13 07:45:50;;;;;;;11.25;2.10;;;20.80;99.90;;;;;;5029943;28;20408;-66
2023/08/13 07:48:17;;;;;;;9.55;1.70;;;21.00;99.90;;;;;;5029246;28;20276;-65
2023/08/13 07:50:43;;;;;;;11.70;1.88;;;21.20;99.90;;;;;;5010501;28;20142;-65
2023/08/13 07:53:09;;;;;;;9.35;1.52;;;21.20;99.90;;;;;;5012909;28;20044;-65
2023/08/13 07:55:35;;;;;;;8.85;1.50;;;21.30;99.90;;;;;;5029725;28;20048;-64
2023/08/13 07:58:00;;;;;;;10.77;1.30;;;21.50;99.90;;;;;;5029225;28;20044;-65
2023/08/13 08:00:26;;;;;;;9.43;2.00;;;21.70;99.90;;;;;;5031206;28;20069;-65
2023/08/13 08:02:53;;;;;;;11.85;2.00;;;21.70;99.90;;;;;;5036799;28;20396;-66
2023/08/13 08:05:22;;;;;;;9.88;2.13;;;21.70;99.90;;;;;;5038937;28;21144;-64
2023/08/13 08:07:48;;;;;;;6.75;1.30;;;21.70;99.90;;;;;;5040035;28;20551;-64
2023/08/13 08:10:14;;;;;;;13.00;1.73;;;21.80;99.90;;;;;;5039162;28;20103;-64
2023/08/13 08:12:39;;;;;;;9.32;1.13;;;22.10;99.90;;;;;;5004314;28;20128;-64
2023/08/13 08:15:06;;;;;;;7.95;1.35;;;22.20;99.90;;;;;;5018459;28;20498;-64
2023/08/13 08:17:33;;;;;;;11.48;1.60;;;22.30;99.90;;;;;;5036394;28;20044;-64
2023/08/13 08:19:59;;;;;;;10.80;1.50;;;22.40;99.90;;;;;;5016893;28;20525;-64
2023/08/13 08:22:26;;;;;;;10.20;1.50;;;21.90;99.90;;;;;;5031683;28;20210;-64
2023/08/13 08:24:54;;;;;;;9.20;1.38;;;21.90;99.90;;;;;;5031912;28;20044;-65
2023/08/13 08:27:19;;;;;;;8.65;1.42;;;21.70;99.90;;;;;;5019092;28;20126;-63
2023/08/13 08:29:45;;;;;;;10.70;1.35;;;21.90;99.90;;;;;;5035195;28;20150;-64
2023/08/13 08:32:11;;;;;;;8.15;1.20;;;21.80;99.90;;;;;;5032141;28;20417;-63
2023/08/13 08:34:36;;;;;;;9.40;1.40;;;21.90;99.90;;;;;;5033950;28;20135;-63
2023/08/13 08:37:04;;;;;;;6.07;1.00;;;21.70;99.90;;;;;;5016158;28;20041;-63
2023/08/13 08:39:30;;;;;;;9.75;1.45;;;21.70;99.90;;;;;;5031015;28;20394;-63
2023/08/13 08:41:57;;;;;;;11.38;2.08;;;21.80;99.90;;;;;;4999108;28;20041;-64
2023/08/13 08:44:24;;;;;;;8.68;1.45;;;22.10;99.90;;;;;;5017040;28;20423;-64
2023/08/13 08:46:51;;;;;;;8.60;1.40;;;22.50;99.90;;;;;;5032523;28;20572;-64
2023/08/13 08:49:19;;;;;;;10.10;1.45;;;22.50;99.90;;;;;;5032152;28;20045;-64
2023/08/13 08:51:46;;;;;;;9.55;1.38;;;22.50;99.90;;;;;;5048912;28;20316;-63
2023/08/13 08:54:12;;;;;;;9.85;1.30;;;22.50;99.90;;;;;;5032907;28;20084;-64
2023/08/13 08:56:37;;;;;;;8.15;1.52;;;22.60;99.90;;;;;;5031447;28;20175;-63
2023/08/13 08:59:05;;;;;;;7.90;1.17;;;22.30;99.90;;;;;;5032641;28;20112;-63
2023/08/13 09:01:31;;;;;;;7.57;1.02;;;22.50;99.90;;;;;;5030639;28;20261;-62
2023/08/13 09:03:57;;;;;;;7.53;1.02;;;22.40;99.90;;;;;;5014599;28;20502;-63
2023/08/13 09:06:23;;;;;;;7.40;1.23;;;22.20;99.90;;;;;;5032418;28;20045;-62
2023/08/13 09:08:49;;;;;;;5.80;0.90;;;21.80;99.90;;;;;;5015468;28;20315;-62
2023/08/13 09:11:17;;;;;;;8.65;1.20;;;21.70;99.90;;;;;;5032617;28;20048;-64
2023/08/13 09:13:50;;;;;;;5.43;1.00;;;21.50;99.90;;;;;;5031166;28;20647;-64
2023/08/13 09:16:16;;;;;;;8.60;1.20;;;21.40;99.90;;;;;;5031838;28;20049;-62
2023/08/13 09:18:42;;;;;;;6.47;1.05;;;21.30;99.90;;;;;;5033933;28;20040;-63
2023/08/13 09:21:11;;;;;;;8.02;0.98;;;21.30;99.90;;;;;;5032948;28;20041;-63
2023/08/13 09:23:39;;;;;;;6.60;0.80;;;21.30;99.90;;;;;;5032897;28;20056;-62
2023/08/13 09:26:05;;;;;;;6.78;0.98;;;21.40;99.90;;;;;;5031832;28;20051;-62
2023/08/13 09:28:31;;;;;;;5.60;1.15;;;21.60;99.90;;;;;;5034083;28;20041;-62
2023/08/13 09:30:57;;;;;;;6.65;1.10;;;21.70;99.90;;;;;;5030662;28;20043;-63
2023/08/13 09:33:23;;;;;;;5.60;0.90;;;22.00;99.90;;;;;;5012233;28;20049;-63
2023/08/13 09:35:48;;;;;;;5.53;1.08;;;22.50;99.90;;;;;;5028571;28;20344;-63
2023/08/13 09:38:14;;;;;;;7.38;0.93;;;23.40;99.90;;;;;;5032436;28;20263;-63
2023/08/13 09:40:42;;;;;;;5.38;0.73;;;23.50;97.50;;;;;;5033324;28;20052;-62
2023/08/13 09:43:09;;;;;;;6.35;0.95;;;23.70;92.70;;;;;;5033330;28;20345;-62
2023/08/13 09:45:36;;;;;;;8.48;1.10;;;23.30;86.50;;;;;;5033503;28;20243;-62
2023/08/13 09:48:05;;;;;;;8.07;0.80;;;23.30;93.60;;;;;;5033222;28;20238;-63
2023/08/13 09:50:39;;;;;;;7.78;0.98;;;23.10;86.30;;;;;;5034633;28;20803;-64
2023/08/13 09:53:08;;;;;;;7.43;1.15;;;23.40;91.20;;;;;;5034232;28;20147;-64
2023/08/13 09:55:52;;;;;;;7.15;0.93;;;24.00;91.10;;;;;;5036280;28;20048;-64
2023/08/13 09:58:19;;;;;;;3.70;0.60;;;23.80;38.90;;;;;;5030375;28;20045;-62
2023/08/13 10:00:47;;;;;;;5.47;0.80;;;23.80;47.40;;;;;;5038975;28;20040;-63
2023/08/13 10:03:16;;;;;;;7.55;0.65;;;23.40;47.00;;;;;;5034970;28;20099;-64
2023/08/13 10:05:43;;;;;;;7.55;0.80;;;23.20;49.20;;;;;;5035499;28;20041;-63
2023/08/13 10:08:08;;;;;;;7.45;0.80;;;22.80;52.60;;;;;;5036442;28;20041;-63
2023/08/13 10:10:36;;;;;;;6.65;0.85;;;22.40;75.70;;;;;;5021326;28;20052;-64
2023/08/13 10:13:03;;;;;;;4.30;0.70;;;22.40;88.20;;;;;;5040131;28;20076;-64
2023/08/13 10:15:30;;;;;;;6.53;0.75;;;23.10;80.10;;;;;;5038733;28;20053;-63
2023/08/13 10:17:58;;;;;;;7.18;0.70;;;23.60;57.30;;;;;;5038476;28;20048;-64
2023/08/13 10:20:25;;;;;;;5.47;0.55;;;24.00;52.60;;;;;;5039420;28;20045;-63
2023/08/13 10:22:53;;;;;;;5.40;0.60;;;24.20;24.30;;;;;;5036594;28;20051;-63
2023/08/13 10:25:32;;;;;;;6.75;0.80;;;24.40;19.00;;;;;;5035765;28;20048;-62
2023/08/13 10:27:58;;;;;;;4.35;0.40;;;24.70;12.80;;;;;;5018570;28;20391;-63
2023/08/13 10:30:23;;;;;;;3.78;0.52;;;24.90;1.00;;;;;;5018540;28;20051;-64
2023/08/13 10:32:49;;;;;;;5.65;0.70;;;24.60;1.10;;;;;;5033254;28;20033;-63
2023/08/13 10:35:37;;;;;;;3.53;0.40;;;24.70;1.00;;;;;;5035523;28;20049;-64
2023/08/13 10:38:04;;;;;;;3.60;0.40;;;24.40;1.10;;;;;;5005471;28;20045;-64
2023/08/13 10:40:30;;;;;;;5.15;0.50;;;23.90;1.00;;;;;;5038756;28;20490;-64
2023/08/13 10:43:00;;;;;;;5.50;0.40;;;23.50;6.20;;;;;;5021744;28;20048;-65
2023/08/13 10:45:29;;;;;;;4.57;0.60;;;23.10;18.20;;;;;;5038633;28;20122;-64
2023/08/13 10:47:56;;;;;;;3.40;0.60;;;22.80;23.70;;;;;;5040656;28;20048;-64
2023/08/13 10:50:40;;;;;;;4.57;0.50;;;22.50;42.50;;;;;;5042930;28;20142;-62
2023/08/13 10:53:10;;;;;;;4.07;0.50;;;22.50;49.00;;;;;;5026329;28;20094;-63
2023/08/13 10:55:48;;;;;;;5.45;0.70;;;22.60;60.10;;;;;;5045083;28;20076;-64
2023/08/13 10:58:27;;;;;;;6.47;0.57;;;22.90;51.50;;;;;;5027372;28;20404;-65
2023/08/13 11:01:10;;;;;;;3.83;0.30;;;23.40;29.30;;;;;;5043461;28;20044;-63
2023/08/13 11:03:57;;;;;;;4.95;0.50;;;23.60;20.90;;;;;;5046641;28;20378;-64
2023/08/13 11:06:25;;;;;;;3.80;0.50;;;23.90;8.90;;;;;;5029199;28;20033;-65
2023/08/13 11:08:51;;;;;;;2.92;0.40;;;24.30;1.00;;;;;;5046180;28;20102;-65
2023/08/13 11:11:18;;;;;;;2.22;0.30;;;24.60;1.00;;;;;;5028905;28;20033;-63
2023/08/13 11:13:45;;;;;;;3.35;0.40;;;25.20;1.00;;;;;;5046521;28;20063;-64
2023/08/13 11:16:11;;;;;;;2.50;0.30;;;25.60;1.00;;;;;;5029892;28;20094;-64
2023/08/13 11:18:37;;;;;;;4.05;0.30;;;26.20;1.00;;;;;;5045970;28;20052;-63
2023/08/13 11:21:04;;;;;;;2.40;0.30;;;26.10;1.00;;;;;;5028799;28;20045;-64
2023/08/13 11:23:30;;;;;;;3.83;0.32;;;25.50;1.00;;;;;;5043868;28;20095;-64
2023/08/13 11:25:56;;;;;;;4.80;0.35;;;25.10;1.00;;;;;;5044104;28;20128;-65
2023/08/13 11:28:25;;;;;;;2.47;0.32;;;24.90;1.00;;;;;;5044249;28;20245;-66
2023/08/13 11:30:59;;;;;;;6.38;0.50;;;25.20;1.00;;;;;;5044047;28;20426;-64
2023/08/13 11:33:25;;;;;;;3.65;0.40;;;25.60;1.00;;;;;;5027168;28;20167;-66
2023/08/13 11:35:51;;;;;;;2.53;0.30;;;25.50;1.00;;;;;;5044191;28;20135;-64
2023/08/13 11:38:18;;;;;;;2.67;0.30;;;25.20;1.00;;;;;;5043452;28;20116;-64
2023/08/13 11:40:43;;;;;;;2.60;0.40;;;24.70;1.00;;;;;;5041460;28;20056;-64
2023/08/13 11:43:11;;;;;;;4.93;0.50;;;24.40;1.00;;;;;;5040723;28;20033;-64
2023/08/13 11:45:38;;;;;;;2.60;0.30;;;23.80;1.00;;;;;;5039420;28;20041;-66
2023/08/13 11:48:20;;;;;;;4.07;0.40;;;23.60;1.00;;;;;;5039763;28;20480;-66
2023/08/13 11:50:55;;;;;;;3.33;0.40;;;23.40;1.00;;;;;;5037610;28;20099;-65
2023/08/13 11:53:21;;;;;;;2.17;0.30;;;23.20;5.40;;;;;;5041337;28;20071;-66
2023/08/13 11:55:48;;;;;;;5.47;0.68;;;23.10;6.50;;;;;;5023404;28;20123;-64
2023/08/13 11:58:18;;;;;;;2.92;0.40;;;23.00;17.20;;;;;;5039667;28;20284;-65
2023/08/13 12:00:48;;;;;;;3.92;0.43;;;23.10;18.20;;;;;;5019110;28;20107;-64
2023/08/13 12:03:14;;;;;;;5.80;0.60;;;23.30;17.40;;;;;;5038536;28;20032;-66
2023/08/13 12:05:41;;;;;;;4.88;0.50;;;23.60;17.80;;;;;;5023009;28;20597;-65
2023/08/13 12:08:09;;;;;;;3.35;0.50;;;23.60;14.20;;;;;;5035212;28;20175;-65
2023/08/13 12:10:36;;;;;;;5.05;0.60;;;23.80;11.00;;;;;;5021801;28;20412;-63
2023/08/13 12:13:01;;;;;;;3.65;0.40;;;23.60;7.90;;;;;;5019181;28;20040;-65
2023/08/13 12:15:29;;;;;;;4.45;0.55;;;23.60;15.40;;;;;;5036706;28;20792;-65
2023/08/13 12:17:56;;;;;;;4.88;0.52;;;23.40;18.70;;;;;;5037968;28;20057;-65
2023/08/13 12:20:23;;;;;;;6.40;0.45;;;23.50;25.50;;;;;;5037970;28;20193;-65
2023/08/13 12:22:49;;;;;;;3.80;0.40;;;23.50;30.20;;;;;;5037234;28;20064;-65
2023/08/13 12:25:16;;;;;;;4.03;0.40;;;23.70;26.80;;;;;;5021378;28;20045;-64
2023/08/13 12:27:44;;;;;;;4.53;0.60;;;24.00;20.80;;;;;;5037989;28;20048;-64
2023/08/13 12:30:10;;;;;;;5.40;0.63;;;24.20;17.20;;;;;;5037051;28;20087;-65
2023/08/13 12:32:37;;;;;;;4.13;0.43;;;24.40;14.00;;;;;;5004261;28;20589;-64
2023/08/13 12:35:02;;;;;;;6.97;0.50;;;24.40;4.30;;;;;;5037581;28;20075;-65
2023/08/13 12:37:29;;;;;;;3.38;0.30;;;24.20;13.40;;;;;;5021512;28;20621;-65
2023/08/13 12:39:54;;;;;;;5.07;0.43;;;23.90;1.00;;;;;;5021557;28;20048;-64
2023/08/13 12:42:20;;;;;;;4.20;0.50;;;23.70;6.50;;;;;;5020602;28;21060;-64
2023/08/13 12:44:53;;;;;;;3.50;0.50;;;23.50;13.20;;;;;;5039233;28;20029;-66